Time;durP1;ratioP1;P1;durP2;ratioP2;P2;SDS_P1;SDS_P2;PMS_P1;PMS_P2;Temp;Humidity;BMP_temperature;BMP_pressure;BME280_temperature;BME280_humidity;BME280_pressure;Samples;Min_cycle;Max_cycle;Signal;HPM_P1;HPM_P2
2022/11/11 00:01:41;;;;;;;15.17;8.17;;;3.40;99.90;;;;;;5115159;28;20305;-77
2022/11/11 00:04:11;;;;;;;16.20;9.17;;;3.30;99.90;;;;;;5114377;28;20205;-76
2022/11/11 00:06:39;;;;;;;15.80;8.63;;;3.20;99.90;;;;;;5131523;27;20214;-75
2022/11/11 00:09:09;;;;;;;14.20;8.20;;;3.20;99.90;;;;;;5134978;27;20211;-77
2022/11/11 00:11:39;;;;;;;13.27;7.77;;;3.20;99.90;;;;;;5134684;27;20695;-75
2022/11/11 00:14:07;;;;;;;10.80;7.67;;;3.20;99.90;;;;;;5132467;27;20186;-75
2022/11/11 00:25:09;;;;;;;9.63;6.97;;;3.20;99.90;;;;;;5134785;27;20210;-75
2022/11/11 00:27:39;;;;;;;9.50;7.57;;;3.10;99.90;;;;;;5135144;27;20585;-74
2022/11/11 00:30:10;;;;;;;11.00;7.20;;;3.10;99.90;;;;;;5121915;27;20633;-75
2022/11/11 00:32:38;;;;;;;13.00;7.70;;;3.00;99.90;;;;;;5113677;28;20244;-74
2022/11/11 00:38:06;;;;;;;9.23;6.90;;;3.00;99.90;;;;;;5114572;28;20193;-76
2022/11/11 00:40:34;;;;;;;10.63;7.27;;;3.10;99.90;;;;;;5125067;28;20206;-76
2022/11/11 00:43:05;;;;;;;9.43;7.23;;;3.00;99.90;;;;;;5135077;28;20206;-75
2022/11/11 00:45:34;;;;;;;8.63;6.60;;;3.00;99.90;;;;;;5135107;28;20186;-76
2022/11/11 00:51:01;;;;;;;9.50;7.10;;;2.90;99.90;;;;;;5133435;28;20213;-76
2022/11/11 00:53:31;;;;;;;10.50;7.00;;;2.90;99.90;;;;;;5134738;28;20205;-76
2022/11/11 00:55:59;;;;;;;8.57;7.20;;;2.90;99.90;;;;;;5134504;28;20217;-75
2022/11/11 00:58:29;;;;;;;8.90;7.13;;;2.80;99.90;;;;;;5119317;28;20214;-75
2022/11/11 01:00:58;;;;;;;9.33;7.23;;;2.90;99.90;;;;;;5093394;28;20723;-75
2022/11/11 01:03:28;;;;;;;9.47;7.27;;;2.80;99.90;;;;;;5094004;28;20207;-75
2022/11/11 01:06:03;;;;;;;9.27;7.13;;;2.80;99.90;;;;;;5093946;28;20219;-75
2022/11/11 01:08:32;;;;;;;9.10;7.40;;;2.90;99.90;;;;;;5130234;28;20201;-75
2022/11/11 01:11:00;;;;;;;10.07;7.23;;;2.90;99.90;;;;;;5134722;28;20212;-74
2022/11/11 01:13:31;;;;;;;9.40;7.53;;;2.90;99.90;;;;;;5134783;28;20742;-77
2022/11/11 01:16:03;;;;;;;10.27;8.07;;;2.90;99.90;;;;;;5132417;28;20219;-75
2022/11/11 01:18:33;;;;;;;12.40;8.67;;;2.90;99.90;;;;;;5134344;28;20182;-76
2022/11/11 01:21:05;;;;;;;12.30;8.47;;;2.90;99.90;;;;;;5134315;28;20731;-76
2022/11/11 01:23:39;;;;;;;11.30;8.27;;;3.00;99.90;;;;;;5148090;28;20217;-76
2022/11/11 01:26:16;;;;;;;11.53;8.83;;;3.00;99.90;;;;;;5136303;27;20701;-75
2022/11/11 01:28:45;;;;;;;14.97;9.90;;;3.10;99.90;;;;;;5138564;27;20662;-76
2022/11/11 01:31:15;;;;;;;10.03;8.37;;;3.00;99.90;;;;;;5139028;27;20209;-76
2022/11/11 01:33:44;;;;;;;15.97;9.13;;;3.00;99.90;;;;;;5136139;27;20229;-75
2022/11/11 01:36:15;;;;;;;10.43;8.23;;;3.00;99.90;;;;;;5138128;27;20563;-77
2022/11/11 01:38:44;;;;;;;9.67;8.20;;;3.00;99.90;;;;;;5138939;27;20200;-77
2022/11/11 01:41:35;;;;;;;9.20;8.17;;;3.00;99.90;;;;;;5139250;27;20210;-77
2022/11/11 01:44:18;;;;;;;11.03;8.50;;;2.90;99.90;;;;;;5124262;27;20660;-75
2022/11/11 01:46:50;;;;;;;10.70;8.43;;;3.00;99.90;;;;;;5118899;28;20186;-76
2022/11/11 01:49:29;;;;;;;12.67;8.03;;;3.10;99.90;;;;;;5119025;28;20203;-74
2022/11/11 01:52:05;;;;;;;12.50;8.40;;;2.90;99.90;;;;;;5131473;27;20594;-74
2022/11/11 01:54:41;;;;;;;9.77;7.80;;;3.00;99.90;;;;;;5142946;27;20367;-76
2022/11/11 01:57:15;;;;;;;10.53;7.70;;;2.90;99.90;;;;;;5142320;27;20217;-76
2022/11/11 01:59:46;;;;;;;11.93;8.20;;;2.90;99.90;;;;;;5151191;27;20189;-76
2022/11/11 02:02:23;;;;;;;12.80;8.37;;;2.90;99.90;;;;;;5160452;27;20209;-77
2022/11/11 02:07:43;;;;;;;12.87;8.00;;;2.80;99.90;;;;;;5151112;27;20567;-75
2022/11/11 02:10:11;;;;;;;9.23;7.73;;;2.80;99.90;;;;;;5137162;27;20266;-76
2022/11/11 02:15:26;;;;;;;10.53;7.23;;;2.80;99.90;;;;;;5136882;27;20217;-76
2022/11/11 02:17:54;;;;;;;8.63;7.03;;;2.70;99.90;;;;;;5106940;27;20244;-76
2022/11/11 02:20:25;;;;;;;11.60;7.40;;;2.80;99.90;;;;;;5098607;28;20557;-76
2022/11/11 02:23:01;;;;;;;10.53;7.87;;;2.80;99.90;;;;;;5116247;28;20670;-76
2022/11/11 02:25:33;;;;;;;11.77;7.33;;;2.70;99.90;;;;;;5116640;28;20206;-76
2022/11/11 02:28:04;;;;;;;9.93;7.70;;;2.80;99.90;;;;;;5114534;28;20210;-76
2022/11/11 02:30:32;;;;;;;11.77;8.30;;;2.80;99.90;;;;;;5116116;28;20217;-76
2022/11/11 02:33:03;;;;;;;11.47;8.07;;;2.80;99.90;;;;;;5116546;28;20225;-76
2022/11/11 02:35:34;;;;;;;16.97;8.63;;;2.70;99.90;;;;;;5122906;27;20206;-76
2022/11/11 02:38:08;;;;;;;15.87;8.97;;;2.70;99.90;;;;;;5136065;27;20214;-76
2022/11/11 02:41:55;;;;;;;36.13;9.63;;;2.70;99.90;;;;;;5136562;27;20209;-77
2022/11/11 02:43:30;;;;;;;60.33;11.00;;;2.70;99.90;;;;;;5136264;27;20663;-75
2022/11/11 02:46:00;;;;;;;21.07;9.27;;;2.70;99.90;;;;;;5135093;27;20206;-75
2022/11/11 02:48:28;;;;;;;13.43;8.70;;;2.70;99.90;;;;;;5136105;27;20216;-75
2022/11/11 02:50:57;;;;;;;18.60;8.37;;;2.70;99.90;;;;;;5135942;27;20310;-75
2022/11/11 02:53:26;;;;;;;12.70;8.97;;;2.70;99.90;;;;;;5120810;27;20271;-76
2022/11/11 02:56:06;;;;;;;11.37;8.27;;;2.70;99.90;;;;;;5115732;28;20237;-76
2022/11/11 02:58:34;;;;;;;9.47;7.87;;;2.70;99.90;;;;;;5115611;28;20673;-75
2022/11/11 03:01:02;;;;;;;10.60;8.13;;;2.60;99.90;;;;;;5107573;28;20300;-76
2022/11/11 03:03:32;;;;;;;9.00;7.17;;;2.70;99.90;;;;;;5095625;28;20207;-74
2022/11/11 03:06:00;;;;;;;10.17;7.40;;;2.70;99.90;;;;;;5103529;28;20207;-77
2022/11/11 03:08:32;;;;;;;10.50;7.53;;;2.70;99.90;;;;;;5116326;28;20210;-76
2022/11/11 03:11:08;;;;;;;10.70;7.93;;;2.70;99.90;;;;;;5138182;27;20201;-77
2022/11/11 03:13:37;;;;;;;9.33;7.53;;;2.60;99.90;;;;;;5135834;27;20297;-76
2022/11/11 03:17:38;;;;;;;8.30;7.30;;;2.60;99.90;;;;;;5135842;27;20197;-75
2022/11/11 03:18:56;;;;;;;8.23;7.17;;;2.60;99.90;;;;;;5134914;27;20228;-78
2022/11/11 03:21:28;;;;;;;8.07;6.80;;;2.60;99.90;;;;;;5135920;27;20245;-74
2022/11/11 03:24:16;;;;;;;8.50;6.73;;;2.60;99.90;;;;;;5135284;27;20240;-75
2022/11/11 03:26:45;;;;;;;7.80;6.63;;;2.60;99.90;;;;;;5115574;27;20210;-76
2022/11/11 03:29:13;;;;;;;8.87;6.77;;;2.60;99.90;;;;;;5114535;28;20214;-76
2022/11/11 03:31:42;;;;;;;7.80;6.20;;;2.50;99.90;;;;;;5114703;28;20225;-76
2022/11/11 03:34:18;;;;;;;7.40;6.30;;;2.40;99.90;;;;;;5123016;27;20229;-75
2022/11/11 03:39:32;;;;;;;8.00;6.60;;;2.40;99.90;;;;;;5135055;27;20188;-76
2022/11/11 03:42:02;;;;;;;8.43;6.50;;;2.40;99.90;;;;;;5135194;27;20216;-76
2022/11/11 03:44:31;;;;;;;9.20;7.37;;;2.30;99.90;;;;;;5135434;27;20212;-76
2022/11/11 03:46:59;;;;;;;7.10;6.40;;;2.30;99.90;;;;;;5124315;27;20698;-76
2022/11/11 03:49:28;;;;;;;8.17;6.80;;;2.30;99.90;;;;;;5114161;28;20275;-76
2022/11/11 03:51:56;;;;;;;7.90;7.10;;;2.30;99.90;;;;;;5113890;28;20210;-76
2022/11/11 03:54:25;;;;;;;7.23;6.53;;;2.30;99.90;;;;;;5114195;28;20222;-76
2022/11/11 03:57:29;;;;;;;7.90;6.60;;;2.30;99.90;;;;;;5114504;27;20686;-77
2022/11/11 03:59:43;;;;;;;7.77;6.77;;;2.20;99.90;;;;;;5114679;28;20209;-76
2022/11/11 04:10:32;;;;;;;7.07;6.07;;;2.30;99.90;;;;;;5114208;28;20218;-75
2022/11/11 04:16:07;;;;;;;7.47;6.17;;;2.30;99.90;;;;;;5097044;28;20211;-76
2022/11/11 04:26:50;;;;;;;6.60;5.90;;;2.20;99.90;;;;;;5080163;28;20226;-75
2022/11/11 04:29:31;;;;;;;8.90;6.00;;;2.20;99.90;;;;;;5113763;28;20214;-76
2022/11/11 04:34:49;;;;;;;7.43;5.70;;;2.10;99.90;;;;;;5113775;28;20229;-74
2022/11/11 04:37:22;;;;;;;9.03;6.07;;;2.20;99.90;;;;;;5112252;28;20651;-75
2022/11/11 04:42:47;;;;;;;6.90;5.23;;;2.10;99.90;;;;;;5050468;28;20247;-76
2022/11/11 04:45:34;;;;;;;10.50;6.50;;;2.10;99.90;;;;;;5083840;28;20575;-75
2022/11/11 04:48:07;;;;;;;7.13;5.90;;;2.10;99.90;;;;;;5100555;28;20217;-76
2022/11/11 04:50:37;;;;;;;7.00;6.17;;;2.10;99.90;;;;;;5114084;28;20224;-76
2022/11/11 04:53:06;;;;;;;7.70;5.80;;;2.10;99.90;;;;;;5113762;28;20214;-77
2022/11/11 04:58:22;;;;;;;8.30;6.13;;;2.00;99.90;;;;;;5093647;28;20209;-75
2022/11/11 05:00:50;;;;;;;6.20;5.60;;;2.00;99.90;;;;;;5096326;28;20219;-75
2022/11/11 05:03:20;;;;;;;9.23;6.23;;;2.00;99.90;;;;;;5097696;28;20206;-76
2022/11/11 05:08:58;;;;;;;6.57;4.90;;;1.90;99.90;;;;;;5118384;28;20214;-75
2022/11/11 05:11:27;;;;;;;8.20;5.10;;;1.80;99.90;;;;;;5118304;28;20213;-77
2022/11/11 05:22:25;;;;;;;6.40;4.90;;;1.80;99.90;;;;;;5110260;28;20585;-74
2022/11/11 05:27:45;;;;;;;6.97;5.60;;;1.80;99.90;;;;;;5125227;28;20362;-77
2022/11/11 05:30:15;;;;;;;5.73;5.13;;;1.80;99.90;;;;;;5124958;28;20214;-77
2022/11/11 05:32:46;;;;;;;6.77;5.57;;;1.80;99.90;;;;;;5141353;27;20193;-78
2022/11/11 05:35:17;;;;;;;8.50;6.10;;;1.80;99.90;;;;;;5139659;27;20218;-77
2022/11/11 05:38:19;;;;;;;6.57;5.87;;;1.80;99.90;;;;;;5141139;27;20215;-78
2022/11/11 05:40:39;;;;;;;7.70;5.67;;;1.80;99.90;;;;;;5137548;27;20222;-76
2022/11/11 05:43:07;;;;;;;8.10;6.00;;;1.80;99.90;;;;;;5115535;28;20210;-80
2022/11/11 05:45:35;;;;;;;7.73;6.23;;;1.80;99.90;;;;;;5113298;28;20652;-77
2022/11/11 05:48:07;;;;;;;7.20;6.17;;;1.80;99.90;;;;;;5109144;28;20221;-76
2022/11/11 05:50:40;;;;;;;9.07;6.37;;;1.80;99.90;;;;;;5105064;28;20213;-75
2022/11/11 05:53:08;;;;;;;8.60;6.93;;;1.80;99.90;;;;;;5127809;28;20209;-76
2022/11/11 05:55:36;;;;;;;8.60;7.17;;;1.80;99.90;;;;;;5130235;28;20214;-76
2022/11/11 05:58:05;;;;;;;9.13;6.63;;;1.80;99.90;;;;;;5134796;28;20221;-76
2022/11/11 06:00:33;;;;;;;8.43;7.00;;;1.80;99.90;;;;;;5130097;28;20231;-76
2022/11/11 06:03:04;;;;;;;8.63;7.67;;;1.80;99.90;;;;;;5115114;28;20677;-78
2022/11/11 06:05:32;;;;;;;10.67;6.50;;;1.80;99.90;;;;;;5115840;28;20198;-77
2022/11/11 06:08:02;;;;;;;12.87;6.33;;;1.80;99.90;;;;;;5108450;28;20286;-78
2022/11/11 06:10:30;;;;;;;8.77;6.40;;;1.80;99.90;;;;;;5111506;28;20218;-78
2022/11/11 06:13:03;;;;;;;10.10;6.80;;;1.80;99.90;;;;;;5119344;28;20214;-78
2022/11/11 06:15:33;;;;;;;10.17;6.80;;;1.70;99.90;;;;;;5118738;28;20222;-78
2022/11/11 06:18:01;;;;;;;9.47;7.10;;;1.80;99.90;;;;;;5117260;28;20210;-77
2022/11/11 06:20:34;;;;;;;9.00;7.20;;;1.80;99.90;;;;;;5117710;28;20213;-77
2022/11/11 06:23:06;;;;;;;8.23;7.33;;;1.80;99.90;;;;;;5118412;28;20195;-77
2022/11/11 06:28:23;;;;;;;7.97;7.13;;;1.80;99.90;;;;;;5117948;28;20219;-77
2022/11/11 06:30:53;;;;;;;9.27;7.10;;;1.80;99.90;;;;;;5126973;28;20254;-77
2022/11/11 06:33:23;;;;;;;8.53;7.07;;;1.80;99.90;;;;;;5132050;28;20194;-76
2022/11/11 06:35:51;;;;;;;8.37;7.47;;;1.80;99.90;;;;;;5119140;28;20693;-76
2022/11/11 06:38:26;;;;;;;9.57;7.97;;;1.90;99.90;;;;;;5098032;28;20213;-77
2022/11/11 06:40:54;;;;;;;10.63;7.67;;;2.00;99.90;;;;;;5098249;28;20298;-75
2022/11/11 06:43:22;;;;;;;8.37;6.80;;;2.00;99.90;;;;;;5099734;28;20226;-77
2022/11/11 06:45:51;;;;;;;9.50;7.40;;;2.10;99.90;;;;;;5099579;28;20221;-77
2022/11/11 06:48:27;;;;;;;9.57;7.13;;;2.10;99.90;;;;;;5096217;28;20652;-75
2022/11/11 06:51:01;;;;;;;7.40;6.37;;;2.20;99.90;;;;;;5096732;28;20299;-75
2022/11/11 06:53:31;;;;;;;8.87;7.00;;;2.30;99.90;;;;;;5099792;28;20221;-76
2022/11/11 06:56:00;;;;;;;8.63;6.50;;;2.30;99.90;;;;;;5116794;28;20230;-76
2022/11/11 06:58:29;;;;;;;10.37;7.13;;;2.40;99.90;;;;;;5116712;28;20656;-75
2022/11/11 07:01:03;;;;;;;8.63;6.23;;;2.40;99.90;;;;;;5116258;28;20222;-76
2022/11/11 07:03:32;;;;;;;10.10;6.77;;;2.50;99.90;;;;;;5115773;28;20207;-77
2022/11/11 07:06:01;;;;;;;7.60;6.03;;;2.60;99.90;;;;;;5116262;28;20285;-74
2022/11/11 07:08:43;;;;;;;11.43;6.40;;;2.60;99.90;;;;;;5115992;28;20212;-76
2022/11/11 07:11:13;;;;;;;8.10;6.30;;;2.60;99.90;;;;;;5115145;28;20264;-76
2022/11/11 07:13:46;;;;;;;7.27;5.60;;;2.70;99.90;;;;;;5116478;28;20194;-76
2022/11/11 07:16:14;;;;;;;6.53;5.83;;;2.90;99.90;;;;;;5115813;28;20232;-75
2022/11/11 07:18:43;;;;;;;7.47;5.80;;;2.90;99.90;;;;;;5115792;28;20217;-78
2022/11/11 07:21:14;;;;;;;7.40;6.37;;;3.00;99.90;;;;;;5115300;28;20626;-76
2022/11/11 07:23:45;;;;;;;9.63;6.87;;;3.00;99.90;;;;;;5115101;28;20297;-75
2022/11/11 07:26:13;;;;;;;8.57;7.00;;;3.10;99.90;;;;;;5115574;28;20206;-76
2022/11/11 07:28:41;;;;;;;8.93;5.97;;;3.20;99.90;;;;;;5114500;28;20667;-75
2022/11/11 07:31:10;;;;;;;7.87;6.00;;;3.30;99.90;;;;;;5115258;28;20224;-77
2022/11/11 07:33:38;;;;;;;10.83;5.90;;;3.40;99.90;;;;;;5115454;28;20214;-77
2022/11/11 07:36:06;;;;;;;7.40;5.87;;;3.30;99.90;;;;;;5114684;28;20687;-77
2022/11/11 07:38:34;;;;;;;7.57;5.57;;;3.50;99.90;;;;;;5114012;28;20210;-75
2022/11/11 07:41:05;;;;;;;9.40;5.57;;;3.50;99.90;;;;;;5115104;28;20201;-74
2022/11/11 07:43:36;;;;;;;11.03;5.57;;;3.60;99.90;;;;;;5115801;28;20202;-77
2022/11/11 07:46:04;;;;;;;8.30;5.27;;;3.80;99.90;;;;;;5115827;28;20206;-76
2022/11/11 07:48:33;;;;;;;5.80;4.50;;;3.90;99.90;;;;;;5114547;28;20559;-76
2022/11/11 07:51:04;;;;;;;6.23;4.80;;;4.10;99.90;;;;;;5115191;28;20198;-76
2022/11/11 07:53:32;;;;;;;6.27;4.97;;;4.20;99.90;;;;;;5115441;28;20197;-76
2022/11/11 07:56:09;;;;;;;7.47;4.90;;;4.50;99.90;;;;;;5117584;28;20577;-77
2022/11/11 07:58:39;;;;;;;7.23;4.80;;;4.60;99.90;;;;;;5115281;28;20218;-77
2022/11/11 08:01:07;;;;;;;8.87;4.70;;;4.40;99.90;;;;;;5115399;28;20218;-76
2022/11/11 08:03:48;;;;;;;9.33;4.63;;;4.50;99.90;;;;;;5114872;28;20607;-75
2022/11/11 08:06:20;;;;;;;5.93;4.47;;;4.60;99.90;;;;;;5115213;28;20206;-76
2022/11/11 08:08:50;;;;;;;6.53;4.40;;;4.60;99.90;;;;;;5115166;28;20212;-75
2022/11/11 08:14:08;;;;;;;5.40;4.10;;;5.00;99.90;;;;;;5104039;28;20237;-78
2022/11/11 08:16:38;;;;;;;4.47;3.80;;;5.00;99.90;;;;;;5112990;28;20238;-79
2022/11/11 08:19:06;;;;;;;5.57;4.20;;;5.10;99.90;;;;;;5109505;28;20225;-77
2022/11/11 08:21:37;;;;;;;4.97;4.00;;;5.30;99.90;;;;;;5114400;28;20225;-76
2022/11/11 08:24:09;;;;;;;6.10;3.90;;;5.30;99.90;;;;;;5096217;28;20214;-77
2022/11/11 08:26:57;;;;;;;4.33;3.70;;;5.50;99.90;;;;;;5094297;28;20244;-76
2022/11/11 08:29:27;;;;;;;4.70;4.00;;;5.70;99.90;;;;;;5094109;28;20206;-77
2022/11/11 08:31:56;;;;;;;4.80;3.80;;;5.90;99.90;;;;;;5095078;28;20630;-77
2022/11/11 08:34:28;;;;;;;6.30;3.60;;;6.30;99.90;;;;;;5093821;28;20253;-76
2022/11/11 08:36:57;;;;;;;4.20;3.30;;;6.40;99.90;;;;;;5093835;28;20588;-76
2022/11/11 08:39:26;;;;;;;5.07;3.23;;;7.00;99.90;;;;;;5094479;28;20557;-78
2022/11/11 08:42:04;;;;;;;5.77;3.33;;;7.70;99.90;;;;;;5114918;28;20281;-76
2022/11/11 08:44:33;;;;;;;5.00;3.10;;;8.30;99.90;;;;;;5116538;28;20248;-77
2022/11/11 08:47:04;;;;;;;3.33;2.90;;;8.70;99.90;;;;;;5120026;28;20202;-77
2022/11/11 08:49:32;;;;;;;3.37;3.03;;;9.30;99.90;;;;;;5115888;28;20579;-76
2022/11/11 08:52:03;;;;;;;5.50;4.00;;;9.60;99.90;;;;;;5115476;28;20194;-78
2022/11/11 08:54:32;;;;;;;3.33;3.03;;;10.20;99.90;;;;;;5115702;28;20202;-76
2022/11/11 08:57:00;;;;;;;3.47;2.80;;;10.60;99.90;;;;;;5115173;28;20249;-77
2022/11/11 08:59:30;;;;;;;4.80;3.03;;;10.80;99.90;;;;;;5116692;28;20214;-76
2022/11/11 09:01:59;;;;;;;4.13;3.33;;;11.00;99.90;;;;;;5116884;28;20226;-79
2022/11/11 09:04:27;;;;;;;5.07;3.47;;;11.30;99.90;;;;;;5117695;28;20719;-78
2022/11/11 09:07:13;;;;;;;3.77;3.20;;;11.30;99.90;;;;;;5120121;28;20267;-76
2022/11/11 09:09:44;;;;;;;3.00;2.70;;;11.80;99.90;;;;;;5119408;28;20277;-77
2022/11/11 09:12:15;;;;;;;4.10;2.70;;;12.00;99.90;;;;;;5125565;28;20216;-77
2022/11/11 09:14:44;;;;;;;6.80;3.13;;;12.40;99.90;;;;;;5136348;27;20195;-78
2022/11/11 09:17:14;;;;;;;2.60;2.40;;;12.40;99.90;;;;;;5125882;27;20223;-78
2022/11/11 09:19:44;;;;;;;4.93;2.60;;;12.30;99.90;;;;;;5114884;28;20213;-78
2022/11/11 09:22:16;;;;;;;2.67;2.33;;;12.50;99.90;;;;;;5096073;28;20199;-77
2022/11/11 09:24:44;;;;;;;5.20;2.27;;;12.20;99.90;;;;;;5094939;28;20195;-79
2022/11/11 09:27:18;;;;;;;4.20;2.57;;;12.00;99.90;;;;;;5097626;28;20207;-76
2022/11/11 09:29:46;;;;;;;4.63;2.70;;;11.60;99.90;;;;;;5094525;28;20197;-77
2022/11/11 09:32:16;;;;;;;2.90;2.40;;;11.60;99.90;;;;;;5097537;28;20202;-77
2022/11/11 09:34:45;;;;;;;3.00;2.20;;;11.70;99.90;;;;;;5096698;28;20226;-76
2022/11/11 09:37:13;;;;;;;3.87;2.60;;;11.70;99.90;;;;;;5096440;28;20254;-76
2022/11/11 09:39:44;;;;;;;4.67;2.67;;;11.60;99.90;;;;;;5094590;28;20203;-76
2022/11/11 09:42:33;;;;;;;3.80;2.30;;;11.50;99.90;;;;;;5094644;28;20192;-77
2022/11/11 09:45:18;;;;;;;3.07;2.30;;;11.50;99.90;;;;;;5095533;28;20219;-77
2022/11/11 09:47:59;;;;;;;3.00;2.30;;;11.60;99.90;;;;;;5103991;28;20195;-77
2022/11/11 09:50:41;;;;;;;3.53;2.10;;;11.50;99.90;;;;;;5098121;28;20619;-76
2022/11/11 09:53:17;;;;;;;4.27;2.20;;;11.50;99.90;;;;;;5097756;28;20198;-77
2022/11/11 09:55:53;;;;;;;2.77;2.20;;;11.60;99.90;;;;;;5097271;28;20223;-77
2022/11/11 09:58:24;;;;;;;2.33;2.13;;;11.60;99.90;;;;;;5096831;28;20183;-78
2022/11/11 10:01:00;;;;;;;3.17;2.47;;;11.50;99.90;;;;;;5097126;28;20235;-77
2022/11/11 10:03:31;;;;;;;4.17;2.50;;;11.70;99.90;;;;;;5097212;28;20659;-78
2022/11/11 10:06:07;;;;;;;2.83;2.13;;;12.10;99.90;;;;;;5096348;28;20249;-78
2022/11/11 10:08:42;;;;;;;2.57;1.90;;;12.60;99.90;;;;;;5098092;28;20205;-77
2022/11/11 10:11:16;;;;;;;2.93;2.20;;;13.00;99.90;;;;;;5096689;28;20694;-78
2022/11/11 10:13:44;;;;;;;2.90;2.00;;;13.50;99.90;;;;;;5095947;28;20207;-79
2022/11/11 10:16:21;;;;;;;3.57;2.07;;;13.60;99.90;;;;;;5110293;28;20207;-78
2022/11/11 10:19:02;;;;;;;2.67;2.10;;;14.00;99.90;;;;;;5100681;28;20190;-77
2022/11/11 10:21:39;;;;;;;3.10;2.30;;;13.80;99.90;;;;;;5096378;28;20207;-77
2022/11/11 10:24:31;;;;;;;4.53;2.43;;;13.40;99.90;;;;;;5096284;28;20207;-81
2022/11/11 10:27:17;;;;;;;3.60;2.10;;;13.60;99.90;;;;;;5095830;28;20215;-78
2022/11/11 10:29:49;;;;;;;2.83;1.90;;;14.60;99.90;;;;;;5096313;28;20270;-78
2022/11/11 10:32:21;;;;;;;3.00;2.00;;;13.80;99.90;;;;;;5096193;28;20310;-77
2022/11/11 10:34:51;;;;;;;2.20;1.80;;;13.80;99.90;;;;;;5106713;28;20222;-77
2022/11/11 10:37:28;;;;;;;4.03;2.60;;;14.20;99.90;;;;;;5116757;28;20603;-76
2022/11/11 10:40:10;;;;;;;3.50;2.80;;;14.20;99.90;;;;;;5116285;28;20202;-78
2022/11/11 10:42:38;;;;;;;3.80;2.90;;;14.10;99.90;;;;;;5117569;28;20213;-78
2022/11/11 10:45:21;;;;;;;4.17;3.03;;;13.70;99.90;;;;;;5116103;28;20229;-77
2022/11/11 10:47:58;;;;;;;6.83;2.83;;;13.30;99.90;;;;;;5116973;28;20701;-77
2022/11/11 10:50:36;;;;;;;5.57;3.30;;;13.10;99.90;;;;;;5116736;28;20214;-77
2022/11/11 10:53:12;;;;;;;6.37;2.90;;;12.80;99.90;;;;;;5117637;28;20186;-77
2022/11/11 10:55:46;;;;;;;3.20;2.80;;;13.10;99.90;;;;;;5117463;28;20213;-78
2022/11/11 10:58:20;;;;;;;3.37;2.80;;;12.90;99.90;;;;;;5116034;28;20229;-76
2022/11/11 11:00:53;;;;;;;8.23;2.83;;;12.60;99.90;;;;;;5104695;28;20884;-78
2022/11/11 11:03:26;;;;;;;3.67;2.70;;;12.50;99.90;;;;;;5095470;28;20198;-78
2022/11/11 11:06:03;;;;;;;4.57;2.70;;;12.80;99.90;;;;;;5095694;28;20215;-77
2022/11/11 11:08:43;;;;;;;4.53;2.70;;;13.20;99.90;;;;;;5095680;28;20201;-77
2022/11/11 11:11:22;;;;;;;4.27;2.70;;;13.20;99.90;;;;;;5095004;28;20187;-77
2022/11/11 11:13:52;;;;;;;4.13;2.70;;;13.80;99.90;;;;;;5103511;28;20206;-79
2022/11/11 11:16:25;;;;;;;2.83;2.57;;;13.80;99.90;;;;;;5117936;28;20230;-78
2022/11/11 11:19:18;;;;;;;4.00;2.93;;;14.00;99.90;;;;;;5114093;28;20226;-78
2022/11/11 11:21:55;;;;;;;4.47;2.50;;;13.90;99.90;;;;;;5115704;28;20210;-77
2022/11/11 11:24:25;;;;;;;3.90;2.80;;;13.90;99.90;;;;;;5115542;28;20197;-77
2022/11/11 11:26:55;;;;;;;3.33;2.60;;;13.30;99.90;;;;;;5109759;28;20203;-76
2022/11/11 11:29:29;;;;;;;6.67;3.10;;;13.20;99.90;;;;;;5096080;28;20251;-78
2022/11/11 11:32:16;;;;;;;3.00;2.70;;;12.50;99.90;;;;;;5094314;28;20210;-77
2022/11/11 11:34:50;;;;;;;4.57;3.07;;;12.60;99.90;;;;;;5112471;28;20206;-77
2022/11/11 11:37:22;;;;;;;2.83;2.57;;;12.70;99.90;;;;;;5113876;28;20313;-78
2022/11/11 11:40:04;;;;;;;3.93;2.93;;;13.00;99.90;;;;;;5114911;28;20643;-78
2022/11/11 11:42:35;;;;;;;7.87;3.27;;;12.60;99.90;;;;;;5114833;28;20188;-77
2022/11/11 11:45:21;;;;;;;4.80;4.10;;;12.20;99.90;;;;;;5115138;28;20197;-76
2022/11/11 11:48:10;;;;;;;6.47;4.90;;;11.90;99.90;;;;;;5095550;28;20187;-77
2022/11/11 11:51:11;;;;;;;5.77;4.20;;;11.90;99.90;;;;;;5094029;28;20203;-77
2022/11/11 11:53:53;;;;;;;8.13;5.13;;;11.60;99.90;;;;;;5094169;28;20759;-76
2022/11/11 11:56:31;;;;;;;13.87;5.80;;;11.50;99.90;;;;;;5093686;28;20214;-76
2022/11/11 11:59:06;;;;;;;6.30;4.77;;;11.60;99.90;;;;;;5093659;28;20210;-77
2022/11/11 12:01:50;;;;;;;5.63;4.60;;;11.60;99.90;;;;;;5093721;28;20230;-77
2022/11/11 12:04:42;;;;;;;6.83;5.30;;;11.80;99.90;;;;;;5093912;28;20191;-77
2022/11/11 12:07:23;;;;;;;7.40;4.80;;;11.80;99.90;;;;;;5084725;28;20260;-75
2022/11/11 12:10:02;;;;;;;7.37;4.97;;;12.10;99.90;;;;;;5093244;28;20184;-76
2022/11/11 12:12:40;;;;;;;4.93;4.43;;;12.30;99.90;;;;;;5099132;28;20652;-77
2022/11/11 12:15:26;;;;;;;6.13;4.50;;;12.60;99.90;;;;;;5095764;28;20640;-75
2022/11/11 12:18:11;;;;;;;7.23;4.60;;;12.60;99.90;;;;;;5093443;28;20217;-75
2022/11/11 12:20:47;;;;;;;6.27;4.80;;;12.70;99.90;;;;;;5095052;28;20195;-76
2022/11/11 12:23:43;;;;;;;8.43;4.63;;;12.60;99.90;;;;;;5114502;28;20252;-75
2022/11/11 12:26:19;;;;;;;6.00;4.70;;;12.70;99.90;;;;;;5114068;28;20210;-76
2022/11/11 12:29:05;;;;;;;5.23;4.70;;;12.80;99.90;;;;;;5113905;28;20212;-76
2022/11/11 12:31:44;;;;;;;7.23;5.03;;;12.90;99.90;;;;;;5100172;28;20202;-77
2022/11/11 12:34:33;;;;;;;5.77;4.93;;;12.90;99.90;;;;;;5095898;28;20213;-76
2022/11/11 12:37:10;;;;;;;5.80;5.20;;;12.60;99.90;;;;;;5093279;28;20655;-76
2022/11/11 12:39:59;;;;;;;8.63;4.70;;;12.50;99.90;;;;;;5097117;28;20228;-76
2022/11/11 12:42:43;;;;;;;5.90;4.30;;;12.40;99.90;;;;;;5112544;28;20197;-78
2022/11/11 12:45:18;;;;;;;4.83;4.33;;;12.10;99.90;;;;;;5112624;28;20216;-78
2022/11/11 12:47:59;;;;;;;6.80;4.70;;;12.00;99.90;;;;;;5125954;28;20198;-77
2022/11/11 12:50:38;;;;;;;5.67;4.40;;;11.90;99.90;;;;;;5117158;28;20233;-74
2022/11/11 12:53:19;;;;;;;6.67;4.80;;;11.90;99.90;;;;;;5118092;28;20198;-75
2022/11/11 12:55:58;;;;;;;5.57;4.60;;;11.70;99.90;;;;;;5103104;28;20234;-77
2022/11/11 12:58:38;;;;;;;5.80;4.77;;;11.80;99.90;;;;;;5093091;28;20233;-76
2022/11/11 13:01:20;;;;;;;4.93;4.50;;;11.70;99.90;;;;;;5093611;28;20273;-77
2022/11/11 13:04:19;;;;;;;6.03;4.83;;;11.90;99.90;;;;;;5101095;28;20201;-77
2022/11/11 13:07:01;;;;;;;5.20;4.70;;;11.90;99.90;;;;;;5112969;28;20214;-76
2022/11/11 13:09:50;;;;;;;5.37;4.87;;;11.90;99.90;;;;;;5113683;28;20206;-75
2022/11/11 13:12:22;;;;;;;5.53;4.90;;;11.80;99.90;;;;;;5098457;28;20310;-77
2022/11/11 13:15:00;;;;;;;5.37;4.70;;;11.60;99.90;;;;;;5113908;28;20638;-78
2022/11/11 13:17:32;;;;;;;5.60;4.80;;;11.60;99.90;;;;;;5113268;28;20209;-78
2022/11/11 13:20:06;;;;;;;5.37;4.87;;;11.80;99.90;;;;;;5113226;28;20668;-76
2022/11/11 13:22:34;;;;;;;6.47;4.83;;;11.70;99.90;;;;;;5116336;28;20655;-77
2022/11/11 13:25:06;;;;;;;5.37;4.87;;;11.90;99.90;;;;;;5117648;28;20217;-77
2022/11/11 13:27:43;;;;;;;6.47;5.13;;;12.10;99.90;;;;;;5116944;28;20602;-76
2022/11/11 13:30:54;;;;;;;5.30;4.80;;;12.20;99.90;;;;;;5103751;28;20225;-75
2022/11/11 13:33:27;;;;;;;4.70;4.03;;;12.20;99.90;;;;;;5097153;28;20270;-78
2022/11/11 13:35:58;;;;;;;5.77;4.80;;;12.20;99.90;;;;;;5096759;28;20198;-77
2022/11/11 13:38:33;;;;;;;4.87;4.40;;;12.20;99.90;;;;;;5113204;28;20257;-76
2022/11/11 13:41:05;;;;;;;7.30;4.10;;;12.20;99.90;;;;;;5116107;28;20567;-76
2022/11/11 13:43:36;;;;;;;5.87;4.27;;;12.30;99.90;;;;;;5116603;28;20206;-77
2022/11/11 13:46:33;;;;;;;5.10;4.20;;;12.40;99.90;;;;;;5115795;28;20297;-80
2022/11/11 13:49:05;;;;;;;5.50;4.20;;;12.40;99.90;;;;;;5116247;28;20801;-76
2022/11/11 13:51:38;;;;;;;5.17;4.20;;;12.40;99.90;;;;;;5116354;28;20529;-77
2022/11/11 13:54:21;;;;;;;5.50;4.10;;;12.40;99.90;;;;;;5116437;28;20233;-75
2022/11/11 13:57:01;;;;;;;6.33;4.57;;;12.50;99.90;;;;;;5115774;28;20293;-76
2022/11/11 13:59:34;;;;;;;5.33;4.00;;;12.50;99.90;;;;;;5116020;28;20218;-77
2022/11/11 14:02:32;;;;;;;5.43;4.43;;;12.40;99.90;;;;;;5116390;28;20576;-75
2022/11/11 14:05:31;;;;;;;7.90;4.70;;;12.30;99.90;;;;;;5115122;28;20198;-78
2022/11/11 14:07:59;;;;;;;5.97;4.37;;;12.30;99.90;;;;;;5053264;28;20226;-77
2022/11/11 14:10:52;;;;;;;7.43;4.50;;;12.30;99.90;;;;;;5089674;28;20211;-76
2022/11/11 14:13:40;;;;;;;5.13;4.30;;;12.30;99.90;;;;;;5099523;28;20206;-77
2022/11/11 14:16:13;;;;;;;6.10;4.37;;;12.10;99.90;;;;;;5116735;28;20214;-76
2022/11/11 14:18:44;;;;;;;5.97;4.97;;;12.10;99.90;;;;;;5116092;28;20699;-77
2022/11/11 14:21:45;;;;;;;5.00;4.33;;;11.90;99.90;;;;;;5116167;28;20292;-77
2022/11/11 14:24:25;;;;;;;4.70;4.20;;;11.90;99.90;;;;;;5116265;28;20262;-77
2022/11/11 14:26:59;;;;;;;6.60;5.10;;;11.70;99.90;;;;;;5116040;28;20197;-77
2022/11/11 14:29:34;;;;;;;5.70;5.07;;;11.60;99.90;;;;;;5116091;28;20187;-77
2022/11/11 14:32:23;;;;;;;6.87;5.50;;;11.40;99.90;;;;;;5113515;28;20198;-77
2022/11/11 14:35:18;;;;;;;6.60;5.87;;;11.40;99.90;;;;;;5115455;28;20687;-76
2022/11/11 14:38:24;;;;;;;7.80;6.00;;;11.30;99.90;;;;;;5115697;28;20190;-78